createdAt,value
2017-10-27T00:00:55.817Z,23.40
2017-10-27T00:03:24.502Z,24.10
2017-10-27T00:05:53.269Z,20.40
2017-10-27T00:08:21.483Z,16.97
2017-10-27T00:10:49.817Z,18.50
2017-10-27T00:13:18.215Z,25.23
2017-10-27T00:15:46.821Z,21.77
2017-10-27T00:18:14.945Z,18.57
2017-10-27T00:20:43.888Z,18.50
2017-10-27T00:23:12.037Z,16.97
2017-10-27T00:25:39.883Z,16.47
2017-10-27T00:28:08.944Z,16.97
2017-10-27T00:30:36.873Z,18.10
2017-10-27T00:33:05.063Z,16.47
2017-10-27T00:35:34.155Z,20.50
2017-10-27T00:38:02.958Z,19.43
2017-10-27T00:40:30.978Z,26.13
2017-10-27T00:42:58.946Z,20.10
2017-10-27T00:45:26.938Z,19.40
2017-10-27T00:47:55.402Z,29.10
2017-10-27T00:50:24.690Z,19.73
2017-10-27T00:52:52.655Z,19.83
2017-10-27T00:55:20.493Z,27.73
2017-10-27T00:57:48.239Z,22.37
2017-10-27T01:00:17.542Z,21.37
2017-10-27T01:02:46.183Z,32.37
2017-10-27T01:05:14.436Z,26.37
2017-10-27T01:07:43.228Z,31.53
2017-10-27T01:10:12.014Z,29.47
2017-10-27T01:12:40.063Z,23.27
2017-10-27T01:15:08.321Z,30.20
2017-10-27T01:17:36.409Z,24.17
2017-10-27T01:20:04.494Z,22.30
2017-10-27T01:22:32.843Z,21.63
2017-10-27T01:25:01.294Z,19.83
2017-10-27T01:27:29.661Z,23.93
2017-10-27T01:29:57.770Z,21.63
2017-10-27T01:32:25.933Z,20.83
2017-10-27T01:34:54.099Z,19.83
2017-10-27T01:37:22.964Z,22.93
2017-10-27T01:39:50.894Z,22.33
2017-10-27T01:42:19.515Z,22.70
2017-10-27T01:44:47.765Z,19.40
2017-10-27T01:47:15.998Z,17.77
2017-10-27T01:49:44.129Z,21.57
2017-10-27T01:52:12.489Z,19.97
2017-10-27T01:54:40.485Z,32.23
2017-10-27T01:57:08.438Z,17.90
2017-10-27T01:59:36.746Z,18.43
2017-10-27T02:02:04.655Z,19.70
2017-10-27T02:04:32.328Z,17.90
2017-10-27T02:07:00.747Z,22.03
2017-10-27T02:09:29.738Z,27.00
2017-10-27T02:11:57.541Z,23.03
2017-10-27T02:14:25.804Z,25.03
2017-10-27T02:16:54.832Z,26.17
2017-10-27T02:19:22.681Z,35.83
2017-10-27T02:21:50.727Z,26.93
2017-10-27T02:24:18.724Z,29.97
2017-10-27T02:26:47.067Z,31.73
2017-10-27T02:29:14.922Z,23.47
2017-10-27T02:31:43.101Z,25.20
2017-10-27T02:34:10.985Z,25.90
2017-10-27T02:36:40.199Z,22.57
2017-10-27T02:39:09.089Z,26.63
2017-10-27T02:41:37.221Z,28.10
2017-10-27T02:44:05.075Z,30.60
2017-10-27T02:46:33.002Z,32.70
2017-10-27T02:49:01.501Z,29.07
2017-10-27T02:51:29.630Z,33.80
2017-10-27T02:53:57.633Z,37.30
2017-10-27T02:56:26.049Z,43.27
2017-10-27T02:58:54.509Z,32.40
2017-10-27T03:01:23.143Z,30.73
2017-10-27T03:03:51.564Z,41.73
2017-10-27T03:06:19.474Z,36.27
2017-10-27T03:08:47.294Z,29.77
2017-10-27T03:11:15.059Z,29.87
2017-10-27T03:13:43.054Z,30.33
2017-10-27T03:16:11.064Z,32.17
2017-10-27T03:18:39.020Z,31.13
2017-10-27T03:21:07.366Z,39.80
2017-10-27T03:23:35.364Z,45.30
2017-10-27T03:26:03.605Z,42.53
2017-10-27T03:28:31.430Z,44.40
2017-10-27T03:31:00.548Z,46.03
2017-10-27T03:33:28.981Z,50.23
2017-10-27T03:35:56.836Z,47.50
2017-10-27T03:38:24.633Z,54.87
2017-10-27T03:40:52.929Z,55.43
2017-10-27T03:43:20.870Z,54.63
2017-10-27T03:45:48.864Z,55.93
2017-10-27T03:48:17.615Z,44.90
2017-10-27T03:50:45.318Z,41.33
2017-10-27T03:53:14.121Z,45.57
2017-10-27T03:55:42.331Z,43.83
2017-10-27T03:58:10.838Z,40.33
2017-10-27T04:00:39.568Z,34.47
2017-10-27T04:03:07.307Z,29.83
2017-10-27T04:05:36.554Z,31.00
2017-10-27T04:08:05.181Z,25.67
2017-10-27T04:10:33.344Z,29.60
2017-10-27T04:13:01.504Z,22.93
2017-10-27T04:15:29.989Z,30.73
2017-10-27T04:17:57.740Z,25.80
2017-10-27T04:20:25.628Z,25.10
2017-10-27T04:22:53.763Z,31.00
2017-10-27T04:25:22.303Z,26.00
2017-10-27T04:27:50.974Z,25.50
2017-10-27T04:30:18.725Z,31.90
2017-10-27T04:32:47.295Z,25.97
2017-10-27T04:35:15.720Z,29.83
2017-10-27T04:37:44.387Z,27.40
2017-10-27T04:40:12.664Z,22.20
2017-10-27T04:42:41.021Z,28.80
2017-10-27T04:45:08.775Z,25.37
2017-10-27T04:47:36.724Z,24.30
2017-10-27T04:50:04.766Z,30.63
2017-10-27T04:52:33.434Z,26.33
2017-10-27T04:55:01.422Z,28.43
2017-10-27T04:57:29.435Z,29.27
2017-10-27T04:59:57.472Z,26.53
2017-10-27T05:02:25.228Z,27.33
2017-10-27T05:04:54.178Z,26.30
2017-10-27T05:07:22.160Z,27.70
2017-10-27T05:09:49.853Z,25.03
2017-10-27T05:12:18.405Z,22.27
2017-10-27T05:14:46.540Z,28.50
2017-10-27T05:17:14.322Z,25.63
2017-10-27T05:19:42.592Z,32.10
2017-10-27T05:22:10.823Z,26.67
2017-10-27T05:24:40.000Z,29.93
2017-10-27T05:27:08.351Z,26.20
2017-10-27T05:29:36.671Z,29.87
2017-10-27T05:32:05.651Z,28.10
2017-10-27T05:34:33.680Z,28.50
2017-10-27T05:37:01.430Z,33.10
2017-10-27T05:39:29.412Z,31.60
2017-10-27T05:41:57.090Z,31.73
2017-10-27T05:44:25.150Z,30.33
2017-10-27T05:46:53.061Z,37.73
2017-10-27T05:49:21.212Z,30.70
2017-10-27T05:51:49.272Z,33.20
2017-10-27T05:54:17.502Z,31.70
2017-10-27T05:56:45.595Z,32.07
2017-10-27T05:59:14.713Z,31.27
2017-10-27T06:01:43.024Z,31.83
2017-10-27T06:04:11.237Z,32.13
2017-10-27T06:06:40.062Z,28.17
2017-10-27T06:09:08.014Z,38.27
2017-10-27T06:11:35.781Z,32.30
2017-10-27T06:14:03.572Z,32.60
2017-10-27T06:16:31.498Z,32.87
2017-10-27T06:18:59.513Z,31.53
2017-10-27T06:21:27.829Z,36.70
2017-10-27T06:23:55.892Z,55.20
2017-10-27T06:26:24.461Z,39.93
2017-10-27T06:28:52.578Z,35.17
2017-10-27T06:31:21.190Z,36.57
2017-10-27T06:33:49.368Z,31.90
2017-10-27T06:36:17.221Z,38.20
2017-10-27T06:38:45.723Z,29.70
2017-10-27T06:41:13.604Z,26.67
2017-10-27T06:43:41.658Z,24.60
2017-10-27T06:46:09.663Z,24.17
2017-10-27T06:48:39.136Z,20.93
2017-10-27T06:51:07.770Z,24.00
2017-10-27T06:53:35.566Z,20.00
2017-10-27T06:56:03.731Z,22.80
2017-10-27T06:58:31.638Z,22.03
2017-10-27T07:00:59.807Z,16.20
2017-10-27T07:03:27.591Z,17.60
2017-10-27T07:05:56.259Z,16.10
2017-10-27T07:08:26.862Z,13.07
2017-10-27T07:10:55.120Z,13.27
2017-10-27T07:13:22.928Z,8.57
2017-10-27T07:15:50.727Z,10.20
2017-10-27T07:18:19.893Z,10.57
2017-10-27T07:20:47.828Z,6.60
2017-10-27T07:23:15.432Z,8.53
2017-10-27T07:25:43.291Z,6.43
2017-10-27T07:28:11.923Z,5.80
2017-10-27T07:30:39.526Z,8.33
2017-10-27T07:33:07.661Z,8.87
2017-10-27T07:35:35.595Z,6.10
2017-10-27T07:38:04.364Z,8.33
2017-10-27T07:40:32.487Z,5.43
2017-10-27T07:43:00.455Z,6.90
2017-10-27T07:45:28.312Z,6.57
2017-10-27T07:47:56.958Z,5.73
2017-10-27T07:50:26.304Z,7.73
2017-10-27T07:52:54.024Z,7.60
2017-10-27T07:55:22.326Z,7.57
2017-10-27T07:57:50.496Z,9.20
2017-10-27T08:00:18.633Z,10.30
2017-10-27T08:02:46.310Z,11.80
2017-10-27T08:05:14.802Z,11.30
2017-10-27T08:07:43.258Z,12.60
2017-10-27T08:10:11.511Z,8.10
2017-10-27T08:12:39.349Z,7.20
2017-10-27T08:15:07.365Z,7.10
2017-10-27T08:17:35.791Z,9.17
2017-10-27T08:20:04.565Z,7.57
2017-10-27T08:22:32.309Z,8.80
2017-10-27T08:25:00.604Z,8.10
2017-10-27T08:27:28.431Z,6.90
2017-10-27T08:29:56.075Z,8.00
2017-10-27T08:32:24.354Z,7.70
2017-10-27T08:34:52.621Z,7.30
2017-10-27T08:37:20.915Z,11.20
2017-10-27T08:39:48.856Z,8.90
2017-10-27T08:42:16.932Z,12.07
2017-10-27T08:44:45.064Z,9.57
2017-10-27T08:47:13.689Z,7.40
2017-10-27T08:49:41.977Z,8.60
2017-10-27T08:52:10.009Z,9.87
2017-10-27T08:54:38.628Z,7.00
2017-10-27T08:57:06.807Z,8.30
2017-10-27T08:59:34.732Z,8.50
2017-10-27T09:02:03.889Z,7.57
2017-10-27T09:04:31.553Z,6.90
2017-10-27T09:06:59.572Z,6.90
2017-10-27T09:09:28.055Z,8.43
2017-10-27T09:11:56.127Z,12.17
2017-10-27T09:14:25.212Z,7.10
2017-10-27T09:16:53.531Z,7.60
2017-10-27T09:19:21.674Z,8.10
2017-10-27T09:21:49.985Z,10.20
2017-10-27T09:24:18.116Z,11.07
2017-10-27T09:26:47.202Z,7.90
2017-10-27T09:29:15.626Z,8.57
2017-10-27T09:31:44.479Z,9.43
2017-10-27T09:34:12.829Z,8.03
2017-10-27T09:36:40.425Z,8.37
2017-10-27T09:39:09.077Z,15.03
2017-10-27T09:41:37.024Z,9.90
2017-10-27T09:44:05.503Z,9.00
2017-10-27T09:46:33.734Z,8.57
2017-10-27T09:49:01.626Z,9.47
2017-10-27T09:51:29.480Z,7.80
2017-10-27T09:53:58.284Z,9.37
2017-10-27T09:56:26.048Z,8.80
2017-10-27T09:58:54.396Z,9.33
2017-10-27T10:01:23.208Z,14.60
2017-10-27T10:03:51.695Z,9.70
2017-10-27T10:06:19.642Z,12.13
2017-10-27T10:08:49.027Z,11.00
2017-10-27T10:11:17.080Z,8.90
2017-10-27T10:13:45.041Z,7.40
2017-10-27T10:16:13.143Z,6.97
2017-10-27T10:18:41.296Z,7.27
2017-10-27T10:21:10.240Z,7.10
2017-10-27T10:23:38.258Z,8.37
2017-10-27T10:26:06.414Z,8.73
2017-10-27T10:28:34.139Z,6.63
2017-10-27T10:31:02.313Z,7.90
2017-10-27T10:33:31.298Z,7.30
2017-10-27T10:35:59.419Z,5.77
2017-10-27T10:38:28.764Z,5.90
2017-10-27T10:40:57.070Z,4.90
2017-10-27T10:45:08.757Z,4.30
2017-10-27T10:47:37.120Z,4.63
2017-10-27T10:50:05.407Z,7.50
2017-10-27T10:52:32.917Z,7.70
2017-10-27T10:55:00.472Z,5.97
2017-10-27T10:57:28.017Z,4.80
2017-10-27T10:59:55.635Z,5.13
2017-10-27T11:02:23.131Z,4.80
2017-10-27T11:04:50.658Z,6.27
2017-10-27T11:07:18.957Z,6.57
2017-10-27T11:09:46.471Z,3.70
2017-10-27T11:12:14.050Z,4.03
2017-10-27T11:14:41.580Z,5.03
2017-10-27T11:17:09.166Z,6.03
2017-10-27T11:19:36.715Z,4.37
2017-10-27T11:22:04.280Z,6.60
2017-10-27T11:24:31.848Z,4.10
2017-10-27T11:26:59.408Z,6.70
2017-10-27T11:29:27.748Z,4.50
2017-10-27T11:31:55.556Z,5.07
2017-10-27T11:34:23.111Z,3.37
2017-10-27T11:36:51.421Z,3.93
2017-10-27T11:39:19.052Z,3.80
2017-10-27T11:41:46.608Z,7.93
2017-10-27T11:44:14.893Z,4.17
2017-10-27T11:46:42.445Z,4.30
2017-10-27T11:49:10.018Z,3.70
2017-10-27T11:51:38.290Z,6.63
2017-10-27T11:54:06.625Z,3.00
2017-10-27T11:56:34.133Z,3.93
2017-10-27T11:59:01.662Z,3.27
2017-10-27T12:01:29.225Z,5.10
2017-10-27T12:03:56.764Z,6.10
2017-10-27T12:06:24.314Z,5.07
2017-10-27T12:08:51.850Z,5.77
2017-10-27T12:11:19.412Z,3.13
2017-10-27T12:13:47.013Z,4.97
2017-10-27T12:16:14.551Z,3.97
2017-10-27T12:18:42.073Z,5.80
2017-10-27T12:21:09.627Z,6.87
2017-10-27T12:23:37.197Z,5.43
2017-10-27T12:26:04.784Z,5.27
2017-10-27T12:28:32.298Z,4.73
2017-10-27T12:31:00.584Z,3.70
2017-10-27T12:33:28.121Z,5.13
2017-10-27T12:35:56.389Z,4.40
2017-10-27T12:38:23.959Z,5.43
2017-10-27T12:40:52.314Z,2.63
2017-10-27T12:43:19.861Z,4.03
2017-10-27T12:45:47.401Z,2.57
2017-10-27T12:48:14.947Z,5.13
2017-10-27T12:50:42.509Z,4.20
2017-10-27T12:53:10.070Z,3.57
2017-10-27T12:55:37.617Z,4.53
2017-10-27T12:58:05.906Z,3.13
2017-10-27T13:00:33.448Z,4.07
2017-10-27T13:03:01.365Z,2.73
2017-10-27T13:05:28.877Z,4.40
2017-10-27T13:07:56.428Z,2.87
2017-10-27T13:10:24.753Z,3.03
2017-10-27T13:12:52.277Z,4.40
2017-10-27T13:15:20.557Z,3.20
2017-10-27T13:17:48.111Z,2.13
2017-10-27T13:20:15.646Z,3.47
2017-10-27T13:22:43.603Z,3.13
2017-10-27T13:25:11.142Z,2.13
2017-10-27T13:27:38.681Z,1.87
2017-10-27T13:30:06.975Z,2.03
2017-10-27T13:32:35.302Z,5.13
2017-10-27T13:35:03.253Z,2.23
2017-10-27T13:37:30.760Z,3.23
2017-10-27T13:39:58.613Z,2.53
2017-10-27T13:42:26.150Z,3.90
2017-10-27T13:44:53.713Z,2.93
2017-10-27T13:47:21.270Z,2.97
2017-10-27T13:49:48.785Z,2.53
2017-10-27T13:52:17.088Z,2.57
2017-10-27T13:54:44.646Z,2.90
2017-10-27T13:57:12.235Z,3.40
2017-10-27T13:59:39.795Z,2.60
2017-10-27T14:02:07.388Z,6.07
2017-10-27T14:04:35.699Z,2.47
2017-10-27T14:07:03.246Z,6.43
2017-10-27T14:09:30.789Z,2.50
2017-10-27T14:11:59.041Z,2.60
2017-10-27T14:14:26.646Z,2.47
2017-10-27T14:16:54.163Z,2.13
2017-10-27T14:19:21.679Z,2.87
2017-10-27T14:41:58.305Z,2.80
2017-10-27T14:44:25.944Z,2.40
2017-10-27T14:59:01.076Z,5.13
2017-10-27T15:01:28.636Z,1.50
2017-10-27T15:03:56.144Z,2.20
2017-10-27T15:06:24.480Z,2.57
2017-10-27T15:08:52.114Z,2.37
2017-10-27T15:11:19.619Z,3.20
2017-10-27T15:13:47.185Z,2.17
2017-10-27T15:16:14.744Z,1.30
2017-10-27T15:18:42.269Z,4.53
2017-10-27T15:21:09.832Z,2.27
2017-10-27T15:23:37.440Z,1.93
2017-10-27T15:26:04.987Z,1.67
2017-10-27T15:28:32.504Z,1.93
2017-10-27T15:31:00.083Z,2.30
2017-10-27T15:33:27.591Z,2.20
2017-10-27T15:35:55.160Z,3.40
2017-10-27T15:38:22.701Z,2.63
2017-10-27T15:40:50.733Z,3.80
2017-10-27T15:43:18.338Z,4.80
2017-10-27T15:45:46.369Z,2.87
2017-10-27T15:48:13.904Z,1.83
2017-10-27T15:50:41.398Z,3.27
2017-10-27T15:53:10.505Z,3.23
2017-10-27T15:55:38.776Z,4.87
2017-10-27T15:58:06.338Z,3.10
2017-10-27T16:00:33.874Z,2.90
2017-10-27T16:03:01.756Z,5.03
2017-10-27T16:05:29.316Z,8.23
2017-10-27T16:07:56.826Z,3.20
2017-10-27T16:10:24.371Z,4.10
2017-10-27T16:12:51.906Z,3.73
2017-10-27T16:15:20.245Z,4.43
2017-10-27T16:17:47.765Z,2.60
2017-10-27T16:20:15.292Z,6.30
2017-10-27T16:22:43.585Z,5.67
2017-10-27T16:25:12.031Z,2.90
2017-10-27T16:27:39.552Z,5.00
2017-10-27T16:30:07.058Z,3.50
2017-10-27T16:32:34.880Z,5.37
2017-10-27T16:35:02.441Z,6.67
2017-10-27T16:37:29.934Z,5.37
2017-10-27T16:39:57.505Z,4.77
2017-10-27T16:42:25.129Z,4.27
2017-10-27T16:44:52.634Z,5.30
2017-10-27T16:47:20.154Z,4.63
2017-10-27T16:49:47.688Z,5.63
2017-10-27T16:52:15.221Z,5.97
2017-10-27T16:54:43.492Z,7.57
2017-10-27T16:57:11.021Z,8.37
2017-10-27T16:59:38.545Z,4.60
2017-10-27T17:02:06.099Z,7.57
2017-10-27T17:04:33.614Z,3.80
2017-10-27T17:07:01.147Z,4.00
2017-10-27T17:09:28.671Z,9.93
2017-10-27T17:11:56.168Z,5.10
2017-10-27T17:14:23.695Z,3.70
2017-10-27T17:16:51.221Z,5.27
2017-10-27T17:19:18.799Z,4.60
2017-10-27T17:21:46.383Z,9.90
2017-10-27T17:24:13.897Z,6.20
2017-10-27T17:26:41.424Z,4.63
2017-10-27T17:29:08.961Z,7.00
2017-10-27T17:31:36.516Z,5.67
2017-10-27T17:34:04.065Z,4.67
2017-10-27T17:36:31.564Z,9.57
2017-10-27T17:38:59.098Z,5.00
2017-10-27T17:41:26.595Z,4.80
2017-10-27T17:43:54.149Z,4.13
2017-10-27T17:46:21.695Z,4.70
2017-10-27T17:48:49.260Z,6.47
2017-10-27T17:51:17.327Z,7.03
2017-10-27T17:53:44.860Z,8.50
2017-10-27T17:56:12.373Z,8.60
2017-10-27T17:58:40.709Z,7.40
2017-10-27T18:01:08.219Z,6.70
2017-10-27T18:03:35.716Z,5.87
2017-10-27T18:06:03.428Z,6.33
2017-10-27T18:08:31.119Z,5.47
2017-10-27T18:10:58.625Z,13.10
2017-10-27T18:13:26.136Z,6.10
2017-10-27T18:15:53.704Z,11.40
2017-10-27T18:18:21.226Z,8.20
2017-10-27T18:20:49.531Z,6.13
2017-10-27T18:23:17.960Z,9.27
2017-10-27T18:25:45.478Z,7.03
2017-10-27T18:28:13.015Z,10.97
2017-10-27T18:30:40.585Z,6.40
2017-10-27T18:33:08.144Z,28.40
2017-10-27T18:35:35.656Z,127.40
2017-10-27T18:38:03.192Z,123.70
2017-10-27T18:40:30.742Z,87.67
2017-10-27T18:42:58.249Z,18.50
2017-10-27T18:45:26.545Z,8.23
2017-10-27T18:47:54.632Z,7.93
2017-10-27T18:50:22.183Z,8.13
2017-10-27T18:52:49.800Z,5.97
2017-10-27T18:55:17.344Z,5.23
2017-10-27T18:57:44.868Z,10.73
2017-10-27T19:00:12.441Z,9.10
2017-10-27T19:02:40.000Z,6.03
2017-10-27T19:05:07.558Z,8.57
2017-10-27T19:07:35.067Z,7.53
2017-10-27T19:10:02.626Z,9.03
2017-10-27T19:12:30.489Z,6.47
2017-10-27T19:14:57.990Z,5.20
2017-10-27T19:17:25.520Z,6.87
2017-10-27T19:19:53.087Z,10.03
2017-10-27T19:22:20.594Z,8.93
2017-10-27T19:24:48.101Z,6.50
2017-10-27T19:27:16.860Z,6.30
2017-10-27T19:29:44.380Z,12.97
2017-10-27T19:32:11.937Z,10.50
2017-10-27T19:34:39.676Z,7.20
2017-10-27T19:37:07.226Z,8.73
2017-10-27T19:39:35.491Z,5.40
2017-10-27T19:42:03.014Z,6.87
2017-10-27T19:44:30.570Z,9.80
2017-10-27T19:46:58.071Z,8.37
2017-10-27T19:49:25.590Z,6.00
2017-10-27T19:51:53.142Z,7.17
2017-10-27T19:54:20.704Z,6.33
2017-10-27T19:56:48.211Z,12.20
2017-10-27T19:59:16.544Z,11.80
2017-10-27T20:01:44.116Z,12.13
2017-10-27T20:04:11.612Z,6.70
2017-10-27T20:06:39.208Z,8.40
2017-10-27T20:09:06.749Z,8.00
2017-10-27T20:11:35.137Z,7.13
2017-10-27T20:14:02.635Z,8.17
2017-10-27T20:16:30.119Z,7.07
2017-10-27T20:18:57.645Z,8.30
2017-10-27T20:21:25.342Z,9.30
2017-10-27T20:23:52.891Z,7.60
2017-10-27T20:26:21.178Z,10.77
2017-10-27T20:28:48.684Z,13.20
2017-10-27T20:31:16.209Z,9.10
2017-10-27T20:33:43.710Z,8.23
2017-10-27T20:36:11.255Z,8.43
2017-10-27T20:38:38.776Z,8.20
2017-10-27T20:41:06.550Z,7.90
2017-10-27T20:43:34.062Z,9.90
2017-10-27T20:46:01.612Z,12.37
2017-10-27T20:48:29.116Z,9.33
2017-10-27T20:50:56.612Z,10.10
2017-10-27T20:53:24.143Z,8.90
2017-10-27T20:55:51.738Z,9.17
2017-10-27T20:58:20.023Z,13.30
2017-10-27T21:00:47.510Z,9.93
2017-10-27T21:03:15.031Z,8.97
2017-10-27T21:05:42.783Z,10.33
2017-10-27T21:08:10.332Z,10.10
2017-10-27T21:10:37.859Z,13.17
2017-10-27T21:13:05.410Z,12.07
2017-10-27T21:15:32.912Z,10.00
2017-10-27T21:18:00.441Z,9.73
2017-10-27T21:20:28.717Z,13.80
2017-10-27T21:22:56.256Z,9.57
2017-10-27T21:25:24.239Z,10.53
2017-10-27T21:27:52.520Z,6.83
2017-10-27T21:30:20.007Z,7.57
2017-10-27T21:32:47.577Z,9.13
2017-10-27T21:35:15.122Z,11.47
2017-10-27T21:37:42.660Z,10.37
2017-10-27T21:40:10.936Z,8.43
2017-10-27T21:42:38.455Z,9.50
2017-10-27T21:45:05.958Z,9.53
2017-10-27T21:47:33.984Z,8.63
2017-10-27T21:50:01.516Z,10.00
2017-10-27T21:52:29.063Z,7.23
2017-10-27T21:54:56.569Z,10.47
2017-10-27T21:57:24.117Z,10.73
2017-10-27T21:59:51.628Z,8.67
2017-10-27T22:02:19.120Z,9.10
2017-10-27T22:04:46.653Z,9.27
2017-10-27T22:07:14.184Z,20.33
2017-10-27T22:09:42.463Z,9.13
2017-10-27T22:12:10.067Z,13.97
2017-10-27T22:14:37.595Z,14.10
2017-10-27T22:17:05.097Z,9.83
2017-10-27T22:19:32.609Z,12.23
2017-10-27T22:22:00.174Z,12.97
2017-10-27T22:24:28.442Z,10.00
2017-10-27T22:26:56.731Z,9.53
2017-10-27T22:29:24.222Z,12.30
2017-10-27T22:31:51.768Z,12.10
2017-10-27T22:34:19.283Z,13.97
2017-10-27T22:36:47.634Z,8.70
2017-10-27T22:39:15.152Z,13.77
2017-10-27T22:41:42.669Z,11.13
2017-10-27T22:44:10.235Z,8.70
2017-10-27T22:46:37.738Z,10.40
2017-10-27T22:49:05.235Z,32.13
2017-10-27T22:51:32.743Z,11.10
2017-10-27T22:54:00.259Z,12.73
2017-10-27T22:56:27.795Z,16.57
2017-10-27T22:58:55.296Z,8.80
2017-10-27T23:01:22.829Z,14.97
2017-10-27T23:03:50.347Z,14.00
2017-10-27T23:06:17.844Z,18.00
2017-10-27T23:08:45.397Z,14.80
2017-10-27T23:11:12.892Z,12.47
2017-10-27T23:13:40.400Z,18.83
2017-10-27T23:16:07.953Z,13.27
2017-10-27T23:18:35.484Z,13.67
2017-10-27T23:21:03.006Z,16.30
2017-10-27T23:23:30.491Z,12.43
2017-10-27T23:25:58.336Z,15.13
2017-10-27T23:28:26.672Z,19.37
2017-10-27T23:30:54.175Z,14.60
2017-10-27T23:33:22.492Z,15.83
2017-10-27T23:35:50.012Z,37.83
2017-10-27T23:38:18.322Z,19.23
2017-10-27T23:40:45.836Z,14.90
2017-10-27T23:43:13.390Z,14.13
2017-10-27T23:45:40.879Z,22.43
2017-10-27T23:48:08.419Z,15.37
2017-10-27T23:50:35.923Z,18.60
2017-10-27T23:53:03.415Z,15.60
2017-10-27T23:55:30.949Z,37.00
2017-10-27T23:57:58.456Z,39.97
